Time;durP1;ratioP1;P1;durP2;ratioP2;P2;SDS_P1;SDS_P2;PMS_P1;PMS_P2;Temp;Humidity;BMP_temperature;BMP_pressure;BME280_temperature;BME280_humidity;BME280_pressure;Samples;Min_cycle;Max_cycle;Signal;HPM_P1;HPM_P2
2023/05/02 00:02:16;;;;;;;1.30;1.20;;;23.30;59.80;;;;;;5019157;28;20480;-67
2023/05/02 00:04:44;;;;;;;0.70;0.70;;;23.30;59.80;;;;;;5033624;28;20439;-67
2023/05/02 00:07:12;;;;;;;0.90;0.90;;;23.30;59.80;;;;;;5032894;28;21015;-69
2023/05/02 00:09:41;;;;;;;1.27;1.17;;;23.30;59.80;;;;;;5033825;28;20432;-68
2023/05/02 00:12:09;;;;;;;0.97;0.97;;;23.30;59.80;;;;;;5033431;28;20976;-68
2023/05/02 00:14:37;;;;;;;1.43;1.10;;;23.30;59.90;;;;;;5033554;28;20530;-68
2023/05/02 00:17:06;;;;;;;0.90;0.90;;;23.30;59.90;;;;;;5032280;28;20552;-68
2023/05/02 00:19:38;;;;;;;0.90;0.90;;;23.30;59.90;;;;;;5033038;28;20440;-68
2023/05/02 00:22:07;;;;;;;1.20;1.20;;;23.30;59.90;;;;;;5032772;28;20543;-68
2023/05/02 00:24:35;;;;;;;0.80;0.80;;;23.30;59.90;;;;;;5033528;28;20929;-68
2023/05/02 00:27:03;;;;;;;1.23;1.13;;;23.30;59.90;;;;;;5015371;28;20889;-68
2023/05/02 00:29:32;;;;;;;0.80;0.80;;;23.30;59.90;;;;;;5033009;28;20484;-68
2023/05/02 00:32:00;;;;;;;1.40;1.30;;;23.20;59.90;;;;;;5033066;28;20464;-68
2023/05/02 00:34:31;;;;;;;1.00;1.00;;;23.20;59.90;;;;;;5030213;28;20459;-68
2023/05/02 00:36:59;;;;;;;0.87;0.87;;;23.20;59.90;;;;;;5032328;28;20437;-68
2023/05/02 00:39:27;;;;;;;0.97;0.97;;;23.20;59.90;;;;;;5032356;28;21004;-68
2023/05/02 00:41:59;;;;;;;1.30;1.20;;;23.20;60.00;;;;;;5032802;28;20466;-68
2023/05/02 00:44:27;;;;;;;0.90;0.90;;;23.20;60.00;;;;;;5033517;28;20467;-68
2023/05/02 00:46:55;;;;;;;0.90;0.90;;;23.20;60.00;;;;;;5026314;28;20467;-68
2023/05/02 00:49:24;;;;;;;1.03;1.03;;;23.20;60.00;;;;;;5051486;28;20473;-68
2023/05/02 00:51:54;;;;;;;0.93;0.93;;;23.20;60.00;;;;;;5028825;28;20503;-68
2023/05/02 00:54:22;;;;;;;1.00;1.00;;;23.20;60.00;;;;;;5014984;28;20490;-68
2023/05/02 00:56:51;;;;;;;1.50;1.40;;;23.20;60.00;;;;;;5015275;28;20467;-68
2023/05/02 00:59:19;;;;;;;1.37;1.13;;;23.20;60.00;;;;;;5014292;28;20865;-68
2023/05/02 01:02:00;;;;;;;1.43;1.33;;;23.20;60.00;;;;;;5031214;28;20464;-69
2023/05/02 01:04:39;;;;;;;1.00;1.00;;;23.20;60.00;;;;;;5032893;28;20448;-68
2023/05/02 01:07:21;;;;;;;1.17;1.03;;;23.20;60.00;;;;;;5032083;28;20437;-68
2023/05/02 01:10:01;;;;;;;1.00;1.00;;;23.20;60.00;;;;;;5032885;28;20519;-68
2023/05/02 01:12:37;;;;;;;0.93;0.93;;;23.10;60.00;;;;;;5031677;28;20501;-68
2023/05/02 01:15:11;;;;;;;0.90;0.90;;;23.10;60.00;;;;;;5014776;28;21023;-68
2023/05/02 01:17:40;;;;;;;1.10;1.10;;;23.10;60.00;;;;;;5014016;28;21038;-68
2023/05/02 01:20:14;;;;;;;1.00;1.00;;;23.10;60.00;;;;;;5031456;28;20460;-68
2023/05/02 01:22:44;;;;;;;1.07;0.97;;;23.10;60.10;;;;;;5031171;28;20444;-68
2023/05/02 01:25:25;;;;;;;1.00;1.00;;;23.10;60.10;;;;;;5030902;28;20507;-68
2023/05/02 01:28:03;;;;;;;1.00;1.00;;;23.10;60.10;;;;;;5014614;28;20809;-68
2023/05/02 01:30:34;;;;;;;0.90;0.90;;;23.10;60.10;;;;;;5010238;28;20547;-68
2023/05/02 01:33:04;;;;;;;1.30;1.30;;;23.10;60.10;;;;;;5027771;28;20970;-68
2023/05/02 01:35:33;;;;;;;1.10;1.10;;;23.10;60.10;;;;;;5014651;28;20445;-68
2023/05/02 01:38:04;;;;;;;0.90;0.90;;;23.10;60.10;;;;;;5030917;28;20553;-68
2023/05/02 01:40:35;;;;;;;1.27;1.17;;;23.10;60.10;;;;;;5032215;28;20440;-68
2023/05/02 01:43:05;;;;;;;1.10;1.00;;;23.10;60.10;;;;;;5032401;28;20523;-68
2023/05/02 01:45:36;;;;;;;1.07;1.03;;;23.10;60.10;;;;;;5031994;28;20888;-69
2023/05/02 01:48:07;;;;;;;0.67;0.67;;;23.10;60.10;;;;;;5049830;28;20522;-69
2023/05/02 01:50:37;;;;;;;0.90;0.90;;;23.10;60.10;;;;;;4999843;28;20514;-68
2023/05/02 01:53:08;;;;;;;0.90;0.90;;;23.10;60.10;;;;;;5029610;28;20838;-68
2023/05/02 01:55:38;;;;;;;0.90;0.90;;;23.10;60.10;;;;;;5031592;28;20437;-68
2023/05/02 01:58:07;;;;;;;1.40;1.20;;;23.10;60.10;;;;;;5031728;28;20539;-67
2023/05/02 02:00:37;;;;;;;0.83;0.83;;;23.00;60.10;;;;;;5031606;28;20428;-68
2023/05/02 02:03:07;;;;;;;0.90;0.90;;;23.10;60.10;;;;;;5031779;28;20961;-68
2023/05/02 02:05:37;;;;;;;1.10;1.10;;;23.00;60.10;;;;;;5031931;28;20447;-68
2023/05/02 02:08:05;;;;;;;0.80;0.80;;;23.00;60.10;;;;;;5029886;28;20438;-68
2023/05/02 02:10:40;;;;;;;0.70;0.70;;;23.00;60.10;;;;;;5011543;28;20452;-68
2023/05/02 02:13:19;;;;;;;0.80;0.80;;;23.00;60.10;;;;;;5031758;28;20498;-68
2023/05/02 02:15:50;;;;;;;0.93;0.83;;;23.00;60.20;;;;;;5031462;28;20448;-68
2023/05/02 02:18:21;;;;;;;1.30;1.10;;;23.00;60.10;;;;;;5012921;28;20464;-68
2023/05/02 02:20:52;;;;;;;1.07;1.07;;;23.00;60.20;;;;;;5029760;28;20452;-68
2023/05/02 02:23:25;;;;;;;0.70;0.70;;;23.00;60.10;;;;;;5013057;28;20463;-68
2023/05/02 02:25:57;;;;;;;0.93;0.93;;;23.00;60.20;;;;;;5031545;28;20470;-68
2023/05/02 02:28:26;;;;;;;0.90;0.90;;;23.00;60.20;;;;;;5031608;28;20454;-68
2023/05/02 02:30:56;;;;;;;1.00;1.00;;;23.00;60.20;;;;;;5031331;28;20461;-68
2023/05/02 02:33:29;;;;;;;0.70;0.70;;;23.00;60.20;;;;;;5030136;28;20508;-67
2023/05/02 02:36:07;;;;;;;1.00;1.00;;;23.00;60.20;;;;;;5009480;28;21186;-68
2023/05/02 02:38:42;;;;;;;1.00;1.00;;;23.00;60.20;;;;;;5018495;28;20490;-68
2023/05/02 02:41:16;;;;;;;0.80;0.80;;;23.00;60.20;;;;;;5035110;28;20821;-68
2023/05/02 02:43:53;;;;;;;0.80;0.80;;;23.00;60.20;;;;;;5035643;28;20545;-68
2023/05/02 02:46:31;;;;;;;0.97;0.97;;;22.90;60.20;;;;;;5023941;28;20926;-68
2023/05/02 02:49:13;;;;;;;0.80;0.80;;;23.00;60.20;;;;;;5028571;28;20474;-68
2023/05/02 02:51:50;;;;;;;1.20;1.20;;;22.90;60.20;;;;;;5013176;28;20455;-68
2023/05/02 02:54:24;;;;;;;1.10;1.10;;;22.90;60.20;;;;;;5035321;28;20496;-68
2023/05/02 02:57:01;;;;;;;0.90;0.90;;;22.90;60.20;;;;;;5017152;28;20439;-68
2023/05/02 02:59:34;;;;;;;0.90;0.90;;;22.90;60.20;;;;;;5034569;28;20880;-68
2023/05/02 03:02:07;;;;;;;1.17;1.00;;;22.90;60.20;;;;;;5015130;28;20528;-67
2023/05/02 03:04:38;;;;;;;1.03;1.00;;;22.90;60.20;;;;;;5025450;28;20443;-68
2023/05/02 03:07:06;;;;;;;0.60;0.60;;;22.90;60.20;;;;;;5034329;28;21076;-68
2023/05/02 03:09:44;;;;;;;0.87;0.87;;;22.90;60.20;;;;;;5033643;28;20892;-68
2023/05/02 03:12:17;;;;;;;0.97;0.97;;;22.90;60.30;;;;;;5016652;28;20538;-68
2023/05/02 03:14:45;;;;;;;0.87;0.80;;;22.90;60.20;;;;;;5017461;28;20476;-68
2023/05/02 03:17:15;;;;;;;0.90;0.90;;;22.90;60.30;;;;;;5016898;28;20468;-67
2023/05/02 03:19:43;;;;;;;0.97;0.97;;;22.90;60.30;;;;;;5033953;28;20474;-68
2023/05/02 03:22:12;;;;;;;0.93;0.93;;;22.90;60.30;;;;;;5016107;28;20816;-67
2023/05/02 03:24:40;;;;;;;0.90;0.90;;;22.90;60.30;;;;;;5016687;28;20498;-68
2023/05/02 03:27:10;;;;;;;1.07;1.03;;;22.90;60.30;;;;;;5016501;28;20475;-68
2023/05/02 03:29:41;;;;;;;1.10;1.00;;;22.90;60.30;;;;;;5016593;28;20458;-68
2023/05/02 03:32:11;;;;;;;1.13;1.13;;;22.90;60.30;;;;;;5034078;28;20446;-68
2023/05/02 03:34:43;;;;;;;0.80;0.80;;;22.90;60.30;;;;;;5017178;28;20478;-69
2023/05/02 03:37:12;;;;;;;1.00;0.97;;;22.90;60.30;;;;;;5015708;28;20459;-68
2023/05/02 03:39:40;;;;;;;0.90;0.90;;;22.90;60.30;;;;;;5016329;28;20486;-68
2023/05/02 03:42:08;;;;;;;0.70;0.70;;;22.90;60.30;;;;;;5016306;28;20440;-68
2023/05/02 03:44:36;;;;;;;0.90;0.73;;;22.90;60.30;;;;;;5016336;28;20459;-68
2023/05/02 03:47:05;;;;;;;1.40;1.30;;;22.90;60.30;;;;;;5046131;28;20853;-67
2023/05/02 03:49:39;;;;;;;0.83;0.83;;;22.90;60.30;;;;;;5021550;28;20475;-68
2023/05/02 03:52:10;;;;;;;0.80;0.80;;;22.90;60.30;;;;;;5015393;28;20954;-67
2023/05/02 03:54:39;;;;;;;1.03;1.03;;;22.90;60.40;;;;;;5016280;28;20479;-68
2023/05/02 03:57:07;;;;;;;0.90;0.73;;;22.90;60.40;;;;;;5016466;28;20465;-68
2023/05/02 03:59:40;;;;;;;1.07;1.00;;;22.90;60.40;;;;;;5014784;28;20559;-68
2023/05/02 04:02:16;;;;;;;0.70;0.70;;;22.90;60.40;;;;;;5015853;28;20455;-68
2023/05/02 04:04:48;;;;;;;0.83;0.83;;;23.00;60.40;;;;;;5016508;28;20470;-67
2023/05/02 04:07:20;;;;;;;1.00;0.93;;;23.00;60.40;;;;;;5014879;28;20468;-67
2023/05/02 04:09:56;;;;;;;0.80;0.80;;;23.10;60.30;;;;;;5016076;28;20463;-68
2023/05/02 04:12:26;;;;;;;0.80;0.80;;;23.10;60.20;;;;;;5033878;28;20454;-67
2023/05/02 04:14:54;;;;;;;0.63;0.63;;;23.20;60.10;;;;;;5014999;28;20468;-68
2023/05/02 04:17:26;;;;;;;0.90;0.90;;;23.20;60.10;;;;;;5013042;28;20952;-68
2023/05/02 04:19:55;;;;;;;0.57;0.57;;;23.30;60.00;;;;;;5008243;28;20460;-69
2023/05/02 04:22:27;;;;;;;0.63;0.63;;;23.30;59.80;;;;;;5018445;28;20464;-68
2023/05/02 04:25:00;;;;;;;0.70;0.70;;;23.30;59.70;;;;;;5010542;28;20463;-69
2023/05/02 04:27:29;;;;;;;0.80;0.80;;;23.30;59.70;;;;;;5014406;28;20988;-69
2023/05/02 04:29:58;;;;;;;0.80;0.80;;;23.40;59.60;;;;;;5010683;28;20463;-68
2023/05/02 04:32:27;;;;;;;0.80;0.80;;;23.40;59.60;;;;;;5028666;28;20480;-68
2023/05/02 04:34:57;;;;;;;0.90;0.90;;;23.40;59.60;;;;;;5013286;28;20584;-68
2023/05/02 04:37:27;;;;;;;1.00;1.00;;;23.30;59.60;;;;;;5003095;28;21031;-68
2023/05/02 04:39:55;;;;;;;0.70;0.70;;;23.30;59.60;;;;;;5013404;28;20820;-68
2023/05/02 04:42:27;;;;;;;0.70;0.70;;;23.30;59.60;;;;;;5010902;28;20500;-69
2023/05/02 04:45:12;;;;;;;0.80;0.80;;;23.30;59.60;;;;;;5031664;28;20449;-69
2023/05/02 04:47:43;;;;;;;1.17;1.17;;;23.30;59.70;;;;;;5011997;28;20457;-69
2023/05/02 04:50:11;;;;;;;1.00;0.90;;;23.30;59.80;;;;;;5030142;28;20452;-70
2023/05/02 04:52:41;;;;;;;0.97;0.97;;;23.20;59.80;;;;;;5012150;28;20457;-69
2023/05/02 04:55:09;;;;;;;0.70;0.70;;;23.20;59.80;;;;;;5012165;28;20576;-69
2023/05/02 04:57:38;;;;;;;0.90;0.90;;;23.20;59.80;;;;;;5007545;28;20464;-69
2023/05/02 05:00:09;;;;;;;0.70;0.70;;;23.20;59.80;;;;;;5023916;28;20951;-68
2023/05/02 05:02:38;;;;;;;0.83;0.83;;;23.20;59.90;;;;;;5009689;28;20529;-68
2023/05/02 05:05:06;;;;;;;0.77;0.70;;;23.20;59.90;;;;;;5008033;28;20968;-69
2023/05/02 05:07:38;;;;;;;0.80;0.80;;;23.20;59.90;;;;;;5030097;28;20471;-68
2023/05/02 05:10:10;;;;;;;1.00;0.90;;;23.20;59.90;;;;;;5029238;28;20780;-69
2023/05/02 05:12:45;;;;;;;0.70;0.70;;;23.10;59.90;;;;;;5012069;28;20473;-69
2023/05/02 05:15:14;;;;;;;1.30;1.20;;;23.10;60.00;;;;;;5013302;28;20472;-69
2023/05/02 05:17:46;;;;;;;0.80;0.80;;;23.10;60.00;;;;;;5015308;28;20459;-68
2023/05/02 05:20:14;;;;;;;0.87;0.87;;;23.10;60.00;;;;;;5031070;28;20461;-69
2023/05/02 05:22:43;;;;;;;0.90;0.90;;;23.10;60.00;;;;;;5030090;28;20479;-69
2023/05/02 05:25:14;;;;;;;0.60;0.60;;;23.10;60.00;;;;;;5005438;28;20468;-69
2023/05/02 05:27:44;;;;;;;0.63;0.63;;;23.10;60.00;;;;;;5008673;28;20460;-69
2023/05/02 05:30:13;;;;;;;1.00;1.00;;;23.10;60.00;;;;;;5009417;28;20517;-69
2023/05/02 05:32:43;;;;;;;1.20;1.17;;;23.10;60.00;;;;;;5009398;28;20472;-68
2023/05/02 05:35:12;;;;;;;0.73;0.73;;;23.10;60.00;;;;;;5012963;28;21083;-69
2023/05/02 05:37:41;;;;;;;1.00;1.00;;;23.10;60.00;;;;;;5010634;28;20472;-68
2023/05/02 05:40:12;;;;;;;1.20;1.20;;;23.10;60.00;;;;;;5009035;28;20460;-68
2023/05/02 05:42:44;;;;;;;0.90;0.90;;;23.10;60.00;;;;;;5007587;28;20460;-69
2023/05/02 05:45:19;;;;;;;0.60;0.60;;;23.10;60.00;;;;;;5007721;28;20461;-69
2023/05/02 05:47:47;;;;;;;1.00;1.00;;;23.10;60.00;;;;;;5010037;28;20452;-69
2023/05/02 05:50:15;;;;;;;0.83;0.83;;;23.10;60.00;;;;;;5028504;28;20455;-69
2023/05/02 05:52:45;;;;;;;0.90;0.90;;;23.10;60.00;;;;;;5014160;28;20491;-69
2023/05/02 05:59:15;;;;;;;0.83;0.83;;;23.10;60.00;;;;;;5030114;28;21233;-69
2023/05/02 06:01:43;;;;;;;0.70;0.70;;;23.10;60.00;;;;;;5012892;28;20476;-69
2023/05/02 06:04:13;;;;;;;0.73;0.73;;;23.10;60.00;;;;;;5015975;28;20472;-69
2023/05/02 06:06:45;;;;;;;0.97;0.90;;;23.10;60.00;;;;;;5041918;28;21013;-69
2023/05/02 06:09:14;;;;;;;1.30;1.20;;;23.20;59.90;;;;;;5029795;28;20455;-69
2023/05/02 06:11:42;;;;;;;0.80;0.80;;;23.20;59.90;;;;;;5029878;28;21283;-69
2023/05/02 06:14:11;;;;;;;0.87;0.87;;;23.20;59.90;;;;;;5006513;28;20484;-69
2023/05/02 06:16:41;;;;;;;0.73;0.73;;;23.20;59.80;;;;;;5029126;28;20464;-69
2023/05/02 06:19:12;;;;;;;0.73;0.73;;;23.30;59.80;;;;;;5027386;28;20453;-69
2023/05/02 06:21:40;;;;;;;0.90;0.90;;;23.30;59.70;;;;;;5027543;28;20455;-69
2023/05/02 06:24:08;;;;;;;1.17;1.10;;;23.30;59.60;;;;;;5028111;28;20458;-69
2023/05/02 06:26:37;;;;;;;0.73;0.73;;;23.30;59.60;;;;;;5025435;28;20551;-69
2023/05/02 06:29:05;;;;;;;1.13;1.00;;;23.30;59.50;;;;;;5034203;28;21039;-69
2023/05/02 06:31:33;;;;;;;0.70;0.70;;;23.30;59.50;;;;;;5030817;28;20456;-69
2023/05/02 06:34:02;;;;;;;1.07;0.90;;;23.30;59.50;;;;;;5032288;28;21029;-69
2023/05/02 06:36:31;;;;;;;0.80;0.80;;;23.30;59.50;;;;;;5027987;28;20472;-69
2023/05/02 06:38:59;;;;;;;1.20;1.20;;;23.30;59.50;;;;;;5011867;28;20917;-69
2023/05/02 06:41:27;;;;;;;0.73;0.73;;;23.30;59.40;;;;;;5028834;28;20453;-69
2023/05/02 06:43:55;;;;;;;0.73;0.73;;;23.30;59.40;;;;;;5031078;28;20897;-68
2023/05/02 06:46:23;;;;;;;0.63;0.63;;;23.30;59.40;;;;;;5029069;28;21291;-68
2023/05/02 06:48:52;;;;;;;0.80;0.80;;;23.30;59.40;;;;;;5033286;28;20457;-69
2023/05/02 06:51:21;;;;;;;1.10;1.00;;;23.30;59.50;;;;;;5031618;28;20913;-69
2023/05/02 06:53:49;;;;;;;0.70;0.70;;;23.30;59.50;;;;;;5033408;28;20568;-68
2023/05/02 06:56:18;;;;;;;0.70;0.70;;;23.30;59.50;;;;;;5032221;28;20464;-68
2023/05/02 06:58:46;;;;;;;0.90;0.90;;;23.30;59.50;;;;;;5027693;28;20845;-69
2023/05/02 07:01:14;;;;;;;0.90;0.90;;;23.30;59.40;;;;;;5024854;28;20468;-68
2023/05/02 07:03:42;;;;;;;0.83;0.83;;;23.30;59.40;;;;;;5027030;28;20456;-69
2023/05/02 07:06:11;;;;;;;1.43;1.07;;;23.30;59.40;;;;;;5029316;28;20500;-69
2023/05/02 07:08:40;;;;;;;1.00;1.00;;;23.30;59.40;;;;;;5030446;28;21843;-69
2023/05/02 07:11:08;;;;;;;0.93;0.93;;;23.30;59.40;;;;;;5028855;28;20977;-69
2023/05/02 07:13:36;;;;;;;0.80;0.80;;;23.30;59.40;;;;;;5030280;28;20448;-69
2023/05/02 07:16:06;;;;;;;0.80;0.80;;;23.30;59.40;;;;;;5030120;28;20566;-69
2023/05/02 07:18:34;;;;;;;0.90;0.90;;;23.30;59.40;;;;;;5030468;28;20447;-69
2023/05/02 07:21:03;;;;;;;1.00;1.00;;;23.30;59.40;;;;;;5029370;28;20455;-69
2023/05/02 07:23:31;;;;;;;0.93;0.70;;;23.30;59.40;;;;;;5029463;28;20448;-69
2023/05/02 07:26:00;;;;;;;1.10;1.00;;;23.30;59.40;;;;;;5033854;28;20502;-69
2023/05/02 07:28:31;;;;;;;0.70;0.70;;;23.30;59.40;;;;;;5032150;28;20526;-69
2023/05/02 07:31:00;;;;;;;0.60;0.60;;;23.30;59.40;;;;;;5033129;28;20438;-69
2023/05/02 07:33:28;;;;;;;0.80;0.80;;;23.30;59.40;;;;;;5034335;28;20547;-69
2023/05/02 07:35:56;;;;;;;0.80;0.80;;;23.30;59.40;;;;;;5033933;28;20496;-69
2023/05/02 07:38:24;;;;;;;1.00;0.90;;;23.30;59.40;;;;;;5032768;28;20523;-69
2023/05/02 07:40:52;;;;;;;0.87;0.87;;;23.30;59.40;;;;;;5034467;28;20444;-69
2023/05/02 07:43:22;;;;;;;1.10;1.00;;;23.30;59.40;;;;;;5034097;28;20482;-69
2023/05/02 07:45:50;;;;;;;0.80;0.80;;;23.30;59.40;;;;;;5032809;28;20468;-69
2023/05/02 07:48:19;;;;;;;1.40;1.30;;;23.30;59.40;;;;;;5033946;28;20534;-69
2023/05/02 07:50:47;;;;;;;0.70;0.70;;;23.30;59.40;;;;;;5016169;28;20807;-69
2023/05/02 07:53:15;;;;;;;0.73;0.70;;;23.40;59.40;;;;;;5032723;28;20577;-69
2023/05/02 07:55:43;;;;;;;0.90;0.90;;;23.40;59.30;;;;;;5034326;28;20555;-69
2023/05/02 07:58:11;;;;;;;0.70;0.70;;;23.40;59.30;;;;;;5033768;28;20440;-69
2023/05/02 08:00:41;;;;;;;0.80;0.80;;;23.40;59.30;;;;;;5034384;28;20424;-69
2023/05/02 08:03:09;;;;;;;0.63;0.63;;;23.50;59.20;;;;;;5034169;28;20964;-69
2023/05/02 08:05:37;;;;;;;0.80;0.80;;;23.50;59.20;;;;;;5033884;28;20453;-69
2023/05/02 08:08:06;;;;;;;0.70;0.70;;;23.50;59.20;;;;;;5015055;28;20486;-69
2023/05/02 08:10:34;;;;;;;0.70;0.70;;;23.50;59.10;;;;;;5015118;28;20533;-69
2023/05/02 08:13:02;;;;;;;0.80;0.80;;;23.50;59.10;;;;;;5033645;28;21009;-69
2023/05/02 08:15:30;;;;;;;0.80;0.80;;;23.50;59.10;;;;;;5033567;28;20505;-70
2023/05/02 08:18:00;;;;;;;0.80;0.80;;;23.50;59.00;;;;;;5033410;28;20448;-69
2023/05/02 08:20:28;;;;;;;0.70;0.70;;;23.50;59.00;;;;;;5032967;28;20442;-69
2023/05/02 08:22:56;;;;;;;0.70;0.70;;;23.50;59.00;;;;;;5023336;28;20500;-69
2023/05/02 08:25:27;;;;;;;2.67;1.03;;;23.50;58.90;;;;;;5033585;28;20963;-69
2023/05/02 08:27:55;;;;;;;0.80;0.77;;;23.60;58.90;;;;;;5033223;28;20443;-69
2023/05/02 08:30:23;;;;;;;1.03;1.03;;;23.60;58.90;;;;;;5033578;28;20439;-69
2023/05/02 08:32:51;;;;;;;1.30;1.20;;;23.60;58.90;;;;;;5032668;28;20518;-69
2023/05/02 08:35:21;;;;;;;0.80;0.80;;;23.60;58.90;;;;;;5032798;28;20566;-69
2023/05/02 08:37:49;;;;;;;1.57;1.47;;;23.60;58.90;;;;;;5032412;28;20578;-69
2023/05/02 08:40:17;;;;;;;1.13;1.03;;;23.60;58.90;;;;;;5015469;28;20477;-69
2023/05/02 08:43:05;;;;;;;0.90;0.90;;;23.60;58.80;;;;;;5032783;28;20517;-69
2023/05/02 08:45:38;;;;;;;0.80;0.80;;;23.60;58.80;;;;;;5031869;28;21065;-69
2023/05/02 08:48:09;;;;;;;0.80;0.80;;;23.60;58.80;;;;;;5029381;28;20486;-69
2023/05/02 08:50:41;;;;;;;0.73;0.73;;;23.60;58.80;;;;;;5032737;28;20464;-69
2023/05/02 08:53:10;;;;;;;0.70;0.70;;;23.60;58.80;;;;;;5032358;28;20827;-69
2023/05/02 08:55:40;;;;;;;0.87;0.87;;;23.60;58.80;;;;;;5032657;28;20471;-68
2023/05/02 08:58:09;;;;;;;0.90;0.87;;;23.60;58.70;;;;;;5029122;28;20453;-68
2023/05/02 09:00:39;;;;;;;0.90;0.90;;;23.60;58.70;;;;;;5032119;28;20988;-69
2023/05/02 09:03:21;;;;;;;0.67;0.67;;;23.60;58.70;;;;;;5032093;28;20960;-69
2023/05/02 09:05:59;;;;;;;1.00;0.97;;;23.70;58.70;;;;;;5032441;28;20441;-69
2023/05/02 09:08:27;;;;;;;1.00;1.00;;;23.70;58.70;;;;;;5032108;28;20448;-69
2023/05/02 09:10:55;;;;;;;0.93;0.93;;;23.70;58.70;;;;;;5032142;28;20538;-69
2023/05/02 09:13:31;;;;;;;0.90;0.90;;;23.70;58.70;;;;;;5032676;28;20524;-69
2023/05/02 09:16:01;;;;;;;0.73;0.73;;;23.70;58.70;;;;;;5032745;28;20534;-69
2023/05/02 09:18:31;;;;;;;0.87;0.87;;;23.70;58.60;;;;;;5032316;28;20864;-69
2023/05/02 09:21:05;;;;;;;0.70;0.70;;;23.70;58.60;;;;;;5032503;28;20535;-69
2023/05/02 09:23:35;;;;;;;0.80;0.80;;;23.70;58.60;;;;;;5031642;28;20434;-69
2023/05/02 09:26:15;;;;;;;1.00;1.00;;;23.70;58.60;;;;;;5030970;28;20454;-69
2023/05/02 09:28:45;;;;;;;0.87;0.87;;;23.80;58.60;;;;;;5024114;28;20987;-69
2023/05/02 09:31:15;;;;;;;0.60;0.60;;;23.80;58.60;;;;;;5031618;28;20948;-68
2023/05/02 09:33:54;;;;;;;1.40;1.30;;;23.80;58.70;;;;;;5023726;28;20505;-68
2023/05/02 09:36:24;;;;;;;1.23;1.23;;;23.90;58.90;;;;;;5008899;28;20882;-69
2023/05/02 09:38:57;;;;;;;3.93;2.10;;;23.90;59.20;;;;;;5030729;28;20850;-68
2023/05/02 09:41:26;;;;;;;2.50;2.30;;;24.00;59.40;;;;;;5025282;28;20488;-71
2023/05/02 09:43:57;;;;;;;2.50;2.27;;;24.00;59.60;;;;;;5021030;28;20449;-69
2023/05/02 09:46:25;;;;;;;2.93;2.73;;;24.00;59.70;;;;;;5025697;28;20541;-69
2023/05/02 09:48:55;;;;;;;2.07;1.97;;;24.10;59.80;;;;;;5029704;28;21143;-68
2023/05/02 09:51:25;;;;;;;2.50;2.20;;;24.10;59.80;;;;;;5026640;28;20480;-69
2023/05/02 09:53:55;;;;;;;1.83;1.73;;;24.10;59.80;;;;;;5031388;28;20478;-68
2023/05/02 09:56:23;;;;;;;3.37;1.93;;;24.20;59.70;;;;;;5029396;28;20566;-69
2023/05/02 09:59:12;;;;;;;2.20;2.00;;;24.20;59.80;;;;;;5023143;28;20517;-69
2023/05/02 10:01:41;;;;;;;2.00;1.90;;;24.20;59.90;;;;;;5026923;28;21005;-68
2023/05/02 10:04:15;;;;;;;2.07;1.97;;;24.20;59.90;;;;;;5030878;28;20460;-68
2023/05/02 10:06:45;;;;;;;2.03;1.93;;;24.30;59.90;;;;;;5029793;28;20462;-67
2023/05/02 10:09:15;;;;;;;3.10;2.27;;;24.30;60.00;;;;;;5027831;28;20458;-67
2023/05/02 10:11:52;;;;;;;2.00;1.77;;;24.40;59.90;;;;;;5016360;28;21010;-67
2023/05/02 10:14:22;;;;;;;3.90;1.83;;;24.40;60.00;;;;;;5024194;28;20542;-68
2023/05/02 10:16:59;;;;;;;2.83;2.63;;;24.40;60.00;;;;;;5030309;28;20506;-67
2023/05/02 10:19:33;;;;;;;2.47;2.13;;;24.40;60.00;;;;;;5029658;28;20459;-68
2023/05/02 10:22:03;;;;;;;2.50;2.30;;;24.40;60.00;;;;;;5029838;28;20444;-68
2023/05/02 10:24:33;;;;;;;3.40;2.00;;;24.50;60.00;;;;;;5026901;28;20534;-68
2023/05/02 10:27:04;;;;;;;2.47;2.30;;;24.50;59.90;;;;;;5025934;28;20457;-68
2023/05/02 10:29:33;;;;;;;2.17;2.07;;;24.50;59.90;;;;;;5021726;28;20458;-69
2023/05/02 10:32:04;;;;;;;2.10;2.00;;;24.50;59.80;;;;;;5019303;28;20864;-68
2023/05/02 10:34:33;;;;;;;2.20;2.10;;;24.50;59.90;;;;;;5020913;28;20459;-67
2023/05/02 10:37:02;;;;;;;2.00;1.80;;;24.50;59.80;;;;;;5022846;28;20506;-71
2023/05/02 10:39:32;;;;;;;2.10;2.00;;;24.50;59.90;;;;;;5011428;28;20603;-68
2023/05/02 10:42:03;;;;;;;1.77;1.67;;;24.50;59.90;;;;;;5023411;28;20958;-68
2023/05/02 10:44:35;;;;;;;2.23;1.80;;;24.50;59.80;;;;;;5025229;28;20552;-69
2023/05/02 10:47:18;;;;;;;2.03;1.90;;;24.60;59.80;;;;;;5027615;28;20465;-69
2023/05/02 10:49:51;;;;;;;2.57;2.37;;;24.60;59.80;;;;;;5022006;28;20536;-69
2023/05/02 10:52:30;;;;;;;2.00;1.90;;;24.60;59.70;;;;;;5021784;28;20850;-69
2023/05/02 10:55:20;;;;;;;2.00;1.90;;;24.60;59.70;;;;;;5015583;28;20545;-69
2023/05/02 10:58:21;;;;;;;2.30;2.17;;;24.70;59.70;;;;;;5022806;28;20474;-68
2023/05/02 11:00:49;;;;;;;2.20;2.10;;;24.70;59.70;;;;;;5032631;28;20491;-70
2023/05/02 11:03:51;;;;;;;1.60;1.50;;;24.70;59.70;;;;;;5027045;28;20937;-69
2023/05/02 11:06:19;;;;;;;2.30;2.20;;;24.70;59.70;;;;;;5023370;28;20487;-69
2023/05/02 11:08:49;;;;;;;2.37;1.97;;;24.70;59.70;;;;;;5023294;28;20465;-68
2023/05/02 11:11:39;;;;;;;2.40;2.20;;;24.70;59.50;;;;;;5025430;28;20489;-68
2023/05/02 11:14:08;;;;;;;2.47;2.27;;;24.80;59.30;;;;;;5025342;28;21039;-68
2023/05/02 11:17:10;;;;;;;2.03;1.90;;;24.80;59.10;;;;;;5024249;28;20479;-69
2023/05/02 11:20:27;;;;;;;2.83;2.63;;;24.80;59.00;;;;;;5030796;28;20459;-69
2023/05/02 11:22:57;;;;;;;1.80;1.70;;;24.80;58.90;;;;;;5014051;28;20550;-68
2023/05/02 11:25:51;;;;;;;2.47;1.73;;;24.90;58.80;;;;;;5028752;28;20853;-68
2023/05/02 11:28:46;;;;;;;1.87;1.77;;;24.90;58.70;;;;;;5032965;28;20577;-69
2023/05/02 11:32:02;;;;;;;1.93;1.83;;;24.90;58.60;;;;;;5030104;28;20462;-68
2023/05/02 11:34:43;;;;;;;1.87;1.77;;;24.90;58.50;;;;;;5024254;28;20458;-68
2023/05/02 11:37:14;;;;;;;2.10;2.00;;;24.90;58.50;;;;;;5032669;28;21004;-68
2023/05/02 11:39:42;;;;;;;1.90;1.80;;;24.80;58.50;;;;;;5034899;28;20528;-69
2023/05/02 11:42:28;;;;;;;2.10;2.00;;;24.80;58.50;;;;;;5039908;28;20475;-69
2023/05/02 11:44:57;;;;;;;2.40;2.20;;;24.80;58.50;;;;;;5028656;28;20550;-69
2023/05/02 11:47:28;;;;;;;2.77;2.33;;;24.80;58.50;;;;;;5030104;28;20454;-69
2023/05/02 11:49:58;;;;;;;2.30;2.20;;;24.90;58.60;;;;;;5031231;28;20486;-69
2023/05/02 11:52:26;;;;;;;1.77;1.67;;;25.00;58.20;;;;;;5031803;28;20454;-69
2023/05/02 11:54:55;;;;;;;2.20;2.03;;;25.00;57.80;;;;;;5029858;28;20499;-69
2023/05/02 11:57:25;;;;;;;2.17;2.07;;;25.00;57.80;;;;;;5031615;28;20567;-69
2023/05/02 11:59:54;;;;;;;2.20;2.10;;;25.00;57.80;;;;;;5010669;28;20481;-68
2023/05/02 12:02:36;;;;;;;2.33;2.13;;;24.90;58.00;;;;;;5026827;28;20520;-69
2023/05/02 12:05:05;;;;;;;2.60;2.13;;;24.90;58.10;;;;;;5026486;28;20465;-69
2023/05/02 12:07:38;;;;;;;2.10;2.00;;;24.80;58.20;;;;;;5031045;28;20491;-70
2023/05/02 12:10:07;;;;;;;2.60;2.40;;;24.80;58.30;;;;;;5029685;28;20553;-69
2023/05/02 12:12:41;;;;;;;2.07;1.80;;;24.70;58.30;;;;;;5029769;28;20953;-69
2023/05/02 12:15:11;;;;;;;2.03;1.90;;;24.60;58.40;;;;;;5029438;28;20529;-69
2023/05/02 12:17:42;;;;;;;2.37;2.23;;;24.60;58.50;;;;;;5032034;28;21007;-69
2023/05/02 12:20:12;;;;;;;2.10;2.00;;;24.60;58.60;;;;;;5007068;28;20835;-69
2023/05/02 12:22:40;;;;;;;2.07;1.97;;;24.50;58.60;;;;;;5030597;28;20464;-69
2023/05/02 12:25:09;;;;;;;1.73;1.63;;;24.50;58.70;;;;;;5019525;28;20461;-69
2023/05/02 12:27:38;;;;;;;1.90;1.80;;;24.50;58.70;;;;;;5028996;28;20549;-70
2023/05/02 12:30:08;;;;;;;2.30;1.97;;;24.50;58.70;;;;;;5027392;28;20450;-72
2023/05/02 12:32:36;;;;;;;2.90;2.70;;;24.50;58.70;;;;;;5031185;28;20453;-72
2023/05/02 12:35:05;;;;;;;2.00;1.90;;;24.50;58.70;;;;;;5030673;28;20545;-72
2023/05/02 12:37:34;;;;;;;2.90;2.70;;;24.50;58.60;;;;;;5028194;28;24657;-73
2023/05/02 12:40:02;;;;;;;2.00;1.90;;;24.50;58.60;;;;;;5030061;28;20465;-72
2023/05/02 12:42:33;;;;;;;2.10;2.00;;;24.50;58.80;;;;;;5030636;28;20544;-72
2023/05/02 12:45:02;;;;;;;1.83;1.73;;;24.60;58.90;;;;;;5011745;28;20469;-72
2023/05/02 12:47:44;;;;;;;1.93;1.83;;;24.70;58.60;;;;;;5027199;28;20480;-73
2023/05/02 12:50:13;;;;;;;1.90;1.80;;;24.90;58.30;;;;;;5029254;28;20461;-72
2023/05/02 12:52:48;;;;;;;1.90;1.80;;;25.00;57.80;;;;;;5029905;28;20515;-71
2023/05/02 12:55:17;;;;;;;2.30;2.10;;;25.00;57.70;;;;;;5040028;28;21233;-72
2023/05/02 12:57:45;;;;;;;1.97;1.87;;;25.00;57.60;;;;;;5027369;28;20481;-72
2023/05/02 13:00:17;;;;;;;1.90;1.80;;;25.10;57.70;;;;;;5024934;28;20461;-73
2023/05/02 13:02:45;;;;;;;2.17;1.97;;;25.20;57.50;;;;;;5028185;28;20454;-72
2023/05/02 13:05:17;;;;;;;1.70;1.60;;;25.30;57.30;;;;;;5030161;28;20856;-73
2023/05/02 13:07:45;;;;;;;1.83;1.73;;;25.40;57.00;;;;;;5028624;28;20459;-73
2023/05/02 13:10:16;;;;;;;1.90;1.80;;;25.50;56.90;;;;;;5019508;28;20474;-71
2023/05/02 13:12:45;;;;;;;2.13;2.03;;;25.60;56.70;;;;;;5022887;28;20519;-72
2023/05/02 13:15:15;;;;;;;2.00;1.90;;;25.60;56.60;;;;;;5026491;28;20467;-70